TPC202 ELLX-EBCI
Flight info
| Callsign | TPC202 |
|---|---|
| Flight time | 0h 53m |
| Altitude | 4000 |
| Route | ELLX EBCI VFR |
| Aircraft | C172/L-SDFG/C |
Departure
| Time | 2026-05-07 16:01 |
|---|---|
| Airport | Luxembourg-Findel International Airport (ELLX) |
Arrival
| Time | 2026-05-07 16:55 |
|---|---|
| Airport | Brussels South Charleroi Airport (EBCI) |
| Time | Latitude | Longitude | Altitude | Speed | Heading |
|---|---|---|---|---|---|
| 2026-05-07 15:47 | 49.62520 | 6.20066 | 1209 ft | 0 kts | 239° |
| 2026-05-07 15:53 | 49.62506 | 6.20036 | 1208 ft | 6 kts | 233° |
| 2026-05-07 15:53 | 49.62467 | 6.19951 | 1204 ft | 8 kts | 236° |
| 2026-05-07 15:53 | 49.62439 | 6.19957 | 1204 ft | 8 kts | 143° |
| 2026-05-07 15:54 | 49.62410 | 6.20048 | 1206 ft | 12 kts | 58° |
| 2026-05-07 15:54 | 49.62462 | 6.20161 | 1211 ft | 12 kts | 44° |
| 2026-05-07 15:54 | 49.62494 | 6.20274 | 1216 ft | 14 kts | 49° |
| 2026-05-07 15:54 | 49.62566 | 6.20404 | 1221 ft | 17 kts | 53° |
| 2026-05-07 15:55 | 49.62659 | 6.20583 | 1227 ft | 23 kts | 41° |
| 2026-05-07 15:55 | 49.62799 | 6.20759 | 1231 ft | 27 kts | 55° |
| 2026-05-07 15:55 | 49.62887 | 6.21028 | 1231 ft | 28 kts | 63° |
| 2026-05-07 15:55 | 49.62971 | 6.21305 | 1227 ft | 29 kts | 66° |
| 2026-05-07 15:56 | 49.62993 | 6.21374 | 1227 ft | 0 kts | 64° |
| 2026-05-07 15:56 | 49.63001 | 6.21400 | 1226 ft | 5 kts | 62° |
| 2026-05-07 15:56 | 49.63030 | 6.21484 | 1225 ft | 12 kts | 62° |
| 2026-05-07 15:57 | 49.63040 | 6.21521 | 1224 ft | 0 kts | 68° |
| 2026-05-07 15:58 | 49.63053 | 6.21563 | 1222 ft | 9 kts | 61° |
| 2026-05-07 15:58 | 49.63092 | 6.21694 | 1219 ft | 16 kts | 74° |
| 2026-05-07 15:58 | 49.63099 | 6.21724 | 1218 ft | 0 kts | 66° |
| 2026-05-07 15:58 | 49.63100 | 6.21727 | 1218 ft | 3 kts | 62° |
| 2026-05-07 15:59 | 49.63135 | 6.21827 | 1216 ft | 17 kts | 68° |
| 2026-05-07 15:59 | 49.63170 | 6.22018 | 1211 ft | 17 kts | 124° |
| 2026-05-07 15:59 | 49.63109 | 6.22078 | 1210 ft | 0 kts | 145° |
| 2026-05-07 16:00 | 49.63106 | 6.22081 | 1209 ft | 4 kts | 141° |
| 2026-05-07 16:00 | 49.63019 | 6.22115 | 1209 ft | 16 kts | 214° |
| 2026-05-07 16:00 | 49.62895 | 6.21843 | 1216 ft | 52 kts | 240° |
| 2026-05-07 16:00 | 49.62677 | 6.21216 | 1282 ft | 74 kts | 240° |
| 2026-05-07 16:01 | 49.62439 | 6.20482 | 1451 ft | 74 kts | 238° |
| 2026-05-07 16:01 | 49.62218 | 6.19822 | 1638 ft | 71 kts | 255° |
| 2026-05-07 16:01 | 49.62386 | 6.19175 | 1782 ft | 72 kts | 317° |
| 2026-05-07 16:01 | 49.62797 | 6.18634 | 1909 ft | 78 kts | 314° |
| 2026-05-07 16:02 | 49.63145 | 6.17966 | 2070 ft | 80 kts | 303° |
| 2026-05-07 16:02 | 49.63456 | 6.17250 | 2220 ft | 83 kts | 303° |
| 2026-05-07 16:02 | 49.63782 | 6.16484 | 2380 ft | 87 kts | 302° |
| 2026-05-07 16:02 | 49.64119 | 6.15716 | 2550 ft | 88 kts | 306° |
| 2026-05-07 16:03 | 49.64475 | 6.14962 | 2738 ft | 86 kts | 307° |
| 2026-05-07 16:03 | 49.64849 | 6.14194 | 2883 ft | 90 kts | 308° |
| 2026-05-07 16:03 | 49.65184 | 6.13408 | 3068 ft | 89 kts | 302° |
| 2026-05-07 16:03 | 49.65499 | 6.12563 | 3231 ft | 90 kts | 302° |
| 2026-05-07 16:04 | 49.65819 | 6.11738 | 3387 ft | 92 kts | 302° |
| 2026-05-07 16:04 | 49.66141 | 6.10895 | 3567 ft | 90 kts | 302° |
| 2026-05-07 16:04 | 49.66480 | 6.10064 | 3723 ft | 91 kts | 304° |
| 2026-05-07 16:04 | 49.66807 | 6.09230 | 3900 ft | 91 kts | 302° |
| 2026-05-07 16:05 | 49.67131 | 6.08391 | 4057 ft | 92 kts | 300° |
| 2026-05-07 16:05 | 49.67400 | 6.07504 | 4221 ft | 92 kts | 293° |
| 2026-05-07 16:05 | 49.67629 | 6.06568 | 4388 ft | 92 kts | 292° |
| 2026-05-07 16:05 | 49.67886 | 6.05667 | 4547 ft | 92 kts | 297° |
| 2026-05-07 16:06 | 49.68177 | 6.04796 | 4712 ft | 91 kts | 300° |
| 2026-05-07 16:06 | 49.68494 | 6.03948 | 4871 ft | 91 kts | 302° |
| 2026-05-07 16:06 | 49.68833 | 6.03129 | 5028 ft | 91 kts | 307° |
| 2026-05-07 16:06 | 49.69213 | 6.02358 | 5188 ft | 90 kts | 309° |
| 2026-05-07 16:07 | 49.69601 | 6.01602 | 5342 ft | 90 kts | 311° |
| 2026-05-07 16:07 | 49.70033 | 6.00911 | 5491 ft | 90 kts | 321° |
| 2026-05-07 16:07 | 49.70494 | 6.00256 | 5645 ft | 91 kts | 313° |
| 2026-05-07 16:07 | 49.70924 | 5.99536 | 5784 ft | 92 kts | 316° |
| 2026-05-07 16:08 | 49.71397 | 5.98865 | 5934 ft | 92 kts | 319° |
| 2026-05-07 16:08 | 49.71901 | 5.98227 | 6061 ft | 94 kts | 321° |
| 2026-05-07 16:08 | 49.72423 | 5.97588 | 6177 ft | 97 kts | 323° |
| 2026-05-07 16:08 | 49.72973 | 5.96936 | 6265 ft | 102 kts | 324° |
| 2026-05-07 16:09 | 49.73569 | 5.96295 | 6307 ft | 107 kts | 326° |
| 2026-05-07 16:09 | 49.74212 | 5.95607 | 6270 ft | 117 kts | 328° |
| 2026-05-07 16:09 | 49.74900 | 5.94941 | 6273 ft | 119 kts | 329° |
| 2026-05-07 16:09 | 49.75630 | 5.94288 | 6222 ft | 123 kts | 331° |
| 2026-05-07 16:10 | 49.76396 | 5.93630 | 6106 ft | 128 kts | 333° |
| 2026-05-07 16:10 | 49.77191 | 5.92968 | 5941 ft | 134 kts | 333° |
| 2026-05-07 16:10 | 49.78030 | 5.92309 | 5804 ft | 133 kts | 334° |
| 2026-05-07 16:10 | 49.78842 | 5.91689 | 5768 ft | 128 kts | 337° |
| 2026-05-07 16:11 | 49.79676 | 5.91193 | 5661 ft | 130 kts | 343° |
| 2026-05-07 16:11 | 49.80522 | 5.90851 | 5727 ft | 119 kts | 347° |
| 2026-05-07 16:11 | 49.81299 | 5.90411 | 5744 ft | 120 kts | 333° |
| 2026-05-07 16:11 | 49.82030 | 5.89762 | 5743 ft | 121 kts | 330° |
| 2026-05-07 16:12 | 49.82757 | 5.89096 | 5743 ft | 121 kts | 330° |
| 2026-05-07 16:12 | 49.83477 | 5.88434 | 5741 ft | 122 kts | 330° |
| 2026-05-07 16:12 | 49.84204 | 5.87765 | 5741 ft | 122 kts | 330° |
| 2026-05-07 16:12 | 49.84936 | 5.87087 | 5740 ft | 122 kts | 330° |
| 2026-05-07 16:13 | 49.85666 | 5.86413 | 5740 ft | 121 kts | 330° |
| 2026-05-07 16:13 | 49.86382 | 5.85752 | 5739 ft | 121 kts | 331° |
| 2026-05-07 16:13 | 49.87107 | 5.85082 | 5736 ft | 121 kts | 330° |
| 2026-05-07 16:13 | 49.87835 | 5.84411 | 5733 ft | 121 kts | 330° |
| 2026-05-07 16:14 | 49.88571 | 5.83736 | 5729 ft | 122 kts | 331° |
| 2026-05-07 16:14 | 49.89310 | 5.83060 | 5748 ft | 120 kts | 331° |
| 2026-05-07 16:14 | 49.90045 | 5.82385 | 5847 ft | 114 kts | 330° |
| 2026-05-07 16:14 | 49.90750 | 5.81738 | 5963 ft | 107 kts | 330° |
| 2026-05-07 16:15 | 49.91445 | 5.81098 | 6093 ft | 103 kts | 330° |
| 2026-05-07 16:15 | 49.92063 | 5.80348 | 6233 ft | 100 kts | 311° |
| 2026-05-07 16:15 | 49.92547 | 5.79398 | 6370 ft | 98 kts | 308° |
| 2026-05-07 16:15 | 49.93006 | 5.78466 | 6505 ft | 96 kts | 308° |
| 2026-05-07 16:16 | 49.93464 | 5.77533 | 6644 ft | 93 kts | 308° |
| 2026-05-07 16:16 | 49.93904 | 5.76636 | 6780 ft | 90 kts | 308° |
| 2026-05-07 16:16 | 49.94340 | 5.75755 | 6917 ft | 86 kts | 308° |
| 2026-05-07 16:16 | 49.94757 | 5.74918 | 7053 ft | 82 kts | 308° |
| 2026-05-07 16:17 | 49.95145 | 5.74148 | 7177 ft | 77 kts | 307° |
| 2026-05-07 16:17 | 49.95530 | 5.73385 | 7282 ft | 76 kts | 307° |
| 2026-05-07 16:17 | 49.95905 | 5.72647 | 7375 ft | 76 kts | 307° |
| 2026-05-07 16:17 | 49.96283 | 5.71913 | 7440 ft | 78 kts | 308° |
| 2026-05-07 16:18 | 49.96675 | 5.71155 | 7496 ft | 81 kts | 308° |
| 2026-05-07 16:18 | 49.97062 | 5.70409 | 7558 ft | 82 kts | 308° |
| 2026-05-07 16:18 | 49.97432 | 5.69699 | 7631 ft | 82 kts | 308° |
| 2026-05-07 16:18 | 49.97780 | 5.69039 | 7700 ft | 81 kts | 308° |
| 2026-05-07 16:19 | 49.98135 | 5.68364 | 7771 ft | 80 kts | 308° |
| 2026-05-07 16:19 | 49.98489 | 5.67697 | 7841 ft | 79 kts | 308° |
| 2026-05-07 16:19 | 49.98835 | 5.67052 | 7907 ft | 78 kts | 308° |
| 2026-05-07 16:19 | 49.99208 | 5.66357 | 7911 ft | 87 kts | 308° |
| 2026-05-07 16:20 | 49.99611 | 5.65610 | 7911 ft | 95 kts | 310° |
| 2026-05-07 16:20 | 50.00084 | 5.64833 | 7909 ft | 101 kts | 314° |
| 2026-05-07 16:20 | 50.00589 | 5.64035 | 7907 ft | 106 kts | 314° |
| 2026-05-07 16:20 | 50.01115 | 5.63204 | 7906 ft | 108 kts | 314° |
| 2026-05-07 16:21 | 50.01646 | 5.62366 | 7906 ft | 110 kts | 314° |
| 2026-05-07 16:21 | 50.02191 | 5.61509 | 7907 ft | 111 kts | 315° |
| 2026-05-07 16:21 | 50.02747 | 5.60680 | 7907 ft | 110 kts | 317° |
| 2026-05-07 16:21 | 50.03294 | 5.59871 | 7909 ft | 107 kts | 316° |
| 2026-05-07 16:22 | 50.03825 | 5.59086 | 7914 ft | 105 kts | 316° |
| 2026-05-07 16:22 | 50.04347 | 5.58314 | 7916 ft | 104 kts | 316° |
| 2026-05-07 16:22 | 50.04874 | 5.57538 | 7919 ft | 103 kts | 316° |
| 2026-05-07 16:22 | 50.05386 | 5.56786 | 7921 ft | 102 kts | 316° |
| 2026-05-07 16:23 | 50.05906 | 5.56021 | 7921 ft | 102 kts | 316° |
| 2026-05-07 16:23 | 50.06430 | 5.55258 | 7922 ft | 102 kts | 316° |
| 2026-05-07 16:23 | 50.06948 | 5.54507 | 7922 ft | 103 kts | 316° |
| 2026-05-07 16:23 | 50.07477 | 5.53748 | 7923 ft | 103 kts | 316° |
| 2026-05-07 16:24 | 50.08007 | 5.52989 | 7922 ft | 104 kts | 317° |
| 2026-05-07 16:24 | 50.08546 | 5.52212 | 7923 ft | 105 kts | 317° |
| 2026-05-07 16:24 | 50.09077 | 5.51440 | 7923 ft | 105 kts | 317° |
| 2026-05-07 16:24 | 50.09613 | 5.50655 | 7924 ft | 106 kts | 317° |
| 2026-05-07 16:25 | 50.10148 | 5.49867 | 7924 ft | 106 kts | 317° |
| 2026-05-07 16:25 | 50.10693 | 5.49064 | 7924 ft | 107 kts | 317° |
| 2026-05-07 16:25 | 50.11234 | 5.48270 | 7925 ft | 107 kts | 317° |
| 2026-05-07 16:25 | 50.11774 | 5.47474 | 7925 ft | 107 kts | 317° |
| 2026-05-07 16:26 | 50.12324 | 5.46665 | 7924 ft | 108 kts | 317° |
| 2026-05-07 16:26 | 50.12880 | 5.45850 | 7925 ft | 108 kts | 317° |
| 2026-05-07 16:26 | 50.13417 | 5.45071 | 7925 ft | 108 kts | 317° |
| 2026-05-07 16:26 | 50.13788 | 5.44535 | 7924 ft | 108 kts | 317° |
| 2026-05-07 16:27 | 50.14527 | 5.43470 | 7924 ft | 109 kts | 317° |
| 2026-05-07 16:27 | 50.15116 | 5.42670 | 7881 ft | 111 kts | 320° |
| 2026-05-07 16:27 | 50.15713 | 5.41899 | 7859 ft | 113 kts | 320° |
| 2026-05-07 16:27 | 50.16299 | 5.41075 | 7855 ft | 111 kts | 318° |
| 2026-05-07 16:28 | 50.16865 | 5.40261 | 7866 ft | 110 kts | 316° |
| 2026-05-07 16:28 | 50.17424 | 5.39430 | 7851 ft | 111 kts | 319° |
| 2026-05-07 16:28 | 50.18003 | 5.38634 | 7859 ft | 111 kts | 318° |
| 2026-05-07 16:28 | 50.18560 | 5.37800 | 7849 ft | 112 kts | 314° |
| 2026-05-07 16:29 | 50.19084 | 5.36909 | 7869 ft | 110 kts | 314° |
| 2026-05-07 16:29 | 50.19662 | 5.36114 | 7871 ft | 110 kts | 325° |
| 2026-05-07 16:29 | 50.20358 | 5.35612 | 7862 ft | 111 kts | 348° |
| 2026-05-07 16:29 | 50.21115 | 5.35439 | 7877 ft | 109 kts | 345° |
| 2026-05-07 16:30 | 50.21806 | 5.34961 | 7871 ft | 111 kts | 328° |
| 2026-05-07 16:30 | 50.22415 | 5.34210 | 7888 ft | 110 kts | 314° |
| 2026-05-07 16:30 | 50.22919 | 5.33296 | 7911 ft | 109 kts | 310° |
| 2026-05-07 16:30 | 50.23449 | 5.32439 | 7921 ft | 110 kts | 315° |
| 2026-05-07 16:31 | 50.24001 | 5.31625 | 7954 ft | 108 kts | 317° |
| 2026-05-07 16:31 | 50.24567 | 5.30837 | 7978 ft | 109 kts | 314° |
| 2026-05-07 16:31 | 50.25103 | 5.29985 | 7976 ft | 111 kts | 313° |
| 2026-05-07 16:31 | 50.25621 | 5.29105 | 8007 ft | 110 kts | 310° |
| 2026-05-07 16:32 | 50.26115 | 5.28202 | 8031 ft | 110 kts | 311° |
| 2026-05-07 16:32 | 50.26659 | 5.27358 | 8046 ft | 110 kts | 317° |
| 2026-05-07 16:32 | 50.27254 | 5.26600 | 8081 ft | 109 kts | 324° |
| 2026-05-07 16:32 | 50.27849 | 5.25853 | 8098 ft | 110 kts | 320° |
| 2026-05-07 16:33 | 50.28445 | 5.25112 | 8120 ft | 111 kts | 318° |
| 2026-05-07 16:33 | 50.29012 | 5.24254 | 8117 ft | 112 kts | 316° |
| 2026-05-07 16:33 | 50.29627 | 5.23478 | 8050 ft | 114 kts | 323° |
| 2026-05-07 16:33 | 50.30286 | 5.22779 | 7923 ft | 115 kts | 328° |
| 2026-05-07 16:34 | 50.30976 | 5.22175 | 7848 ft | 112 kts | 330° |
| 2026-05-07 16:34 | 50.31702 | 5.21674 | 7706 ft | 114 kts | 339° |
| 2026-05-07 16:34 | 50.32432 | 5.21236 | 7632 ft | 112 kts | 340° |
| 2026-05-07 16:34 | 50.33152 | 5.20747 | 7502 ft | 114 kts | 334° |
| 2026-05-07 16:35 | 50.33869 | 5.20194 | 7405 ft | 115 kts | 335° |
| 2026-05-07 16:35 | 50.34589 | 5.19609 | 7296 ft | 116 kts | 327° |
| 2026-05-07 16:35 | 50.35207 | 5.18840 | 7235 ft | 114 kts | 316° |
| 2026-05-07 16:35 | 50.35768 | 5.17948 | 7136 ft | 115 kts | 314° |
| 2026-05-07 16:36 | 50.36315 | 5.17025 | 7066 ft | 114 kts | 313° |
| 2026-05-07 16:36 | 50.36874 | 5.16106 | 6921 ft | 118 kts | 315° |
| 2026-05-07 16:36 | 50.37430 | 5.15184 | 6859 ft | 115 kts | 310° |
| 2026-05-07 16:36 | 50.37925 | 5.14173 | 6742 ft | 117 kts | 307° |
| 2026-05-07 16:37 | 50.38405 | 5.13162 | 6666 ft | 116 kts | 307° |
| 2026-05-07 16:37 | 50.38849 | 5.12082 | 6546 ft | 118 kts | 298° |
| 2026-05-07 16:37 | 50.39191 | 5.10928 | 6464 ft | 117 kts | 291° |
| 2026-05-07 16:37 | 50.39444 | 5.09710 | 6350 ft | 118 kts | 290° |
| 2026-05-07 16:38 | 50.39752 | 5.08478 | 6175 ft | 123 kts | 294° |
| 2026-05-07 16:38 | 50.40134 | 5.07306 | 6080 ft | 120 kts | 299° |
| 2026-05-07 16:38 | 50.40537 | 5.06166 | 5951 ft | 121 kts | 300° |
| 2026-05-07 16:38 | 50.40939 | 5.04998 | 5837 ft | 120 kts | 298° |
| 2026-05-07 16:39 | 50.41343 | 5.03864 | 5699 ft | 120 kts | 304° |
| 2026-05-07 16:39 | 50.41842 | 5.02828 | 5563 ft | 119 kts | 310° |
| 2026-05-07 16:39 | 50.42341 | 5.01804 | 5436 ft | 118 kts | 309° |
| 2026-05-07 16:39 | 50.42836 | 5.00751 | 5297 ft | 119 kts | 304° |
| 2026-05-07 16:40 | 50.43267 | 4.99661 | 5180 ft | 118 kts | 304° |
| 2026-05-07 16:40 | 50.43712 | 4.98573 | 5041 ft | 116 kts | 304° |
| 2026-05-07 16:40 | 50.44138 | 4.97494 | 4820 ft | 118 kts | 303° |
| 2026-05-07 16:40 | 50.44476 | 4.96352 | 4664 ft | 115 kts | 295° |
| 2026-05-07 16:41 | 50.44765 | 4.95162 | 4442 ft | 118 kts | 290° |
| 2026-05-07 16:41 | 50.44995 | 4.93933 | 4261 ft | 116 kts | 287° |
| 2026-05-07 16:41 | 50.45195 | 4.92696 | 4059 ft | 118 kts | 284° |
| 2026-05-07 16:41 | 50.45244 | 4.91419 | 3867 ft | 119 kts | 267° |
| 2026-05-07 16:42 | 50.45146 | 4.90142 | 3691 ft | 118 kts | 263° |
| 2026-05-07 16:42 | 50.44981 | 4.88877 | 3505 ft | 118 kts | 259° |
| 2026-05-07 16:42 | 50.44822 | 4.87624 | 3326 ft | 117 kts | 262° |
| 2026-05-07 16:42 | 50.44698 | 4.86364 | 3137 ft | 118 kts | 258° |
| 2026-05-07 16:43 | 50.44394 | 4.85162 | 2952 ft | 118 kts | 244° |
| 2026-05-07 16:43 | 50.44061 | 4.84009 | 2791 ft | 116 kts | 249° |
| 2026-05-07 16:43 | 50.43752 | 4.82867 | 2703 ft | 109 kts | 248° |
| 2026-05-07 16:43 | 50.43450 | 4.81814 | 2694 ft | 101 kts | 244° |
| 2026-05-07 16:44 | 50.43151 | 4.80843 | 2746 ft | 96 kts | 245° |
| 2026-05-07 16:44 | 50.42863 | 4.79826 | 2687 ft | 102 kts | 243° |
| 2026-05-07 16:44 | 50.42518 | 4.78877 | 2754 ft | 103 kts | 239° |
| 2026-05-07 16:44 | 50.42181 | 4.77855 | 2794 ft | 106 kts | 243° |
| 2026-05-07 16:45 | 50.41877 | 4.76801 | 2853 ft | 106 kts | 247° |
| 2026-05-07 16:45 | 50.41586 | 4.75715 | 2879 ft | 108 kts | 249° |
| 2026-05-07 16:45 | 50.41395 | 4.74599 | 2921 ft | 107 kts | 262° |
| 2026-05-07 16:45 | 50.41285 | 4.73438 | 2971 ft | 106 kts | 264° |
| 2026-05-07 16:46 | 50.41193 | 4.72281 | 3008 ft | 107 kts | 263° |
| 2026-05-07 16:46 | 50.41098 | 4.71119 | 3050 ft | 107 kts | 258° |
| 2026-05-07 16:46 | 50.40837 | 4.70017 | 3060 ft | 109 kts | 258° |
| 2026-05-07 16:46 | 50.40665 | 4.68866 | 3118 ft | 106 kts | 251° |
| 2026-05-07 16:47 | 50.40364 | 4.67789 | 3051 ft | 114 kts | 245° |
| 2026-05-07 16:47 | 50.40023 | 4.66627 | 2923 ft | 119 kts | 245° |
| 2026-05-07 16:47 | 50.39683 | 4.65452 | 2845 ft | 117 kts | 249° |
| 2026-05-07 16:47 | 50.39400 | 4.64245 | 2716 ft | 118 kts | 251° |
| 2026-05-07 16:48 | 50.39206 | 4.62990 | 2521 ft | 119 kts | 263° |
| 2026-05-07 16:48 | 50.39164 | 4.61726 | 2407 ft | 113 kts | 273° |
| 2026-05-07 16:48 | 50.39207 | 4.60509 | 2288 ft | 110 kts | 276° |
| 2026-05-07 16:48 | 50.39295 | 4.59317 | 2175 ft | 108 kts | 280° |
| 2026-05-07 16:49 | 50.39375 | 4.58169 | 2121 ft | 104 kts | 278° |
| 2026-05-07 16:49 | 50.39363 | 4.57040 | 2018 ft | 106 kts | 268° |
| 2026-05-07 16:49 | 50.39285 | 4.55876 | 1889 ft | 106 kts | 264° |
| 2026-05-07 16:49 | 50.39207 | 4.54763 | 1794 ft | 104 kts | 262° |
| 2026-05-07 16:50 | 50.39237 | 4.53696 | 1770 ft | 98 kts | 285° |
| 2026-05-07 16:50 | 50.39505 | 4.52706 | 1770 ft | 93 kts | 298° |
| 2026-05-07 16:50 | 50.39783 | 4.51815 | 1788 ft | 88 kts | 306° |
| 2026-05-07 16:50 | 50.40219 | 4.51169 | 1771 ft | 89 kts | 326° |
| 2026-05-07 16:51 | 50.40724 | 4.50613 | 1754 ft | 88 kts | 328° |
| 2026-05-07 16:51 | 50.41225 | 4.50126 | 1802 ft | 82 kts | 333° |
| 2026-05-07 16:51 | 50.41724 | 4.49609 | 1774 ft | 89 kts | 327° |
| 2026-05-07 16:51 | 50.42246 | 4.49043 | 1758 ft | 93 kts | 328° |
| 2026-05-07 16:52 | 50.42761 | 4.48365 | 1701 ft | 99 kts | 319° |
| 2026-05-07 16:52 | 50.43261 | 4.47652 | 1646 ft | 98 kts | 322° |
| 2026-05-07 16:52 | 50.43821 | 4.47003 | 1477 ft | 104 kts | 315° |
| 2026-05-07 16:52 | 50.44082 | 4.46019 | 1473 ft | 91 kts | 274° |
| 2026-05-07 16:53 | 50.44060 | 4.45042 | 1387 ft | 88 kts | 257° |
| 2026-05-07 16:53 | 50.43883 | 4.44130 | 1352 ft | 85 kts | 255° |
| 2026-05-07 16:53 | 50.43711 | 4.43236 | 1291 ft | 85 kts | 253° |
| 2026-05-07 16:53 | 50.43613 | 4.42305 | 1184 ft | 86 kts | 277° |
| 2026-05-07 16:54 | 50.43976 | 4.41674 | 1112 ft | 79 kts | 344° |
| 2026-05-07 16:54 | 50.44505 | 4.41550 | 1022 ft | 79 kts | 17° |
| 2026-05-07 16:54 | 50.44910 | 4.42067 | 964 ft | 75 kts | 47° |
| 2026-05-07 16:54 | 50.45235 | 4.42707 | 866 ft | 76 kts | 57° |
| 2026-05-07 16:55 | 50.45454 | 4.43477 | 730 ft | 78 kts | 66° |
| 2026-05-07 16:55 | 50.45673 | 4.44212 | 618 ft | 67 kts | 63° |
| 2026-05-07 16:55 | 50.45840 | 4.44766 | 598 ft | 36 kts | 67° |
| 2026-05-07 16:55 | 50.45940 | 4.45111 | 599 ft | 35 kts | 67° |
| 2026-05-07 16:56 | 50.46024 | 4.45430 | 599 ft | 14 kts | 95° |
| 2026-05-07 16:56 | 50.45973 | 4.45505 | 599 ft | 7 kts | 159° |
| 2026-05-07 16:56 | 50.45969 | 4.45507 | 599 ft | 0 kts | 157° |
| 2026-05-07 16:57 | 50.45950 | 4.45525 | 599 ft | 9 kts | 130° |
| 2026-05-07 16:57 | 50.45977 | 4.45659 | 599 ft | 15 kts | 67° |
| 2026-05-07 16:57 | 50.46007 | 4.45783 | 597 ft | 5 kts | 118° |
| 2026-05-07 16:58 | 50.45973 | 4.45812 | 597 ft | 6 kts | 155° |
| 2026-05-07 16:58 | 50.45961 | 4.45846 | 597 ft | 0 kts | 64° |